Time;durP1;ratioP1;P1;durP2;ratioP2;P2;SDS_P1;SDS_P2;PMS_P1;PMS_P2;Temp;Humidity;BMP_temperature;BMP_pressure;BME280_temperature;BME280_humidity;BME280_pressure;Samples;Min_cycle;Max_cycle;Signal;HPM_P1;HPM_P2
2023/09/10 00:00:38;;;;;;;13.95;6.90;;;;;;;-140.66;100.00;55571.53;5115900;28;20050;-71
2023/09/10 00:03:24;;;;;;;13.57;6.00;;;;;;;-140.66;100.00;55571.53;5117021;28;20481;-71
2023/09/10 00:06:09;;;;;;;11.57;6.10;;;;;;;-140.66;100.00;55571.53;5115784;28;20027;-71
2023/09/10 00:08:55;;;;;;;9.50;6.40;;;;;;;-140.66;100.00;55571.53;5114960;28;20028;-71
2023/09/10 00:11:41;;;;;;;10.85;6.03;;;;;;;-140.66;100.00;55571.53;5115810;28;20460;-71
2023/09/10 00:14:26;;;;;;;11.50;6.20;;;;;;;-140.66;100.00;55571.53;5114655;28;20027;-71
2023/09/10 00:17:12;;;;;;;9.20;5.45;;;;;;;-140.66;100.00;55571.53;5116152;28;20026;-71
2023/09/10 00:19:58;;;;;;;10.50;5.95;;;;;;;-140.66;100.00;55571.53;5116150;28;20027;-71
2023/09/10 00:22:44;;;;;;;10.10;5.70;;;;;;;-140.66;100.00;55571.53;5114733;28;20098;-72
2023/09/10 00:25:30;;;;;;;14.13;5.85;;;;;;;-140.66;100.00;55571.53;5117164;28;20023;-72
2023/09/10 00:28:16;;;;;;;9.30;5.85;;;;;;;-140.66;100.00;55571.53;5115539;28;20030;-71
2023/09/10 00:31:02;;;;;;;8.68;5.88;;;;;;;-140.66;100.00;55571.53;5115468;28;20023;-72
2023/09/10 00:33:48;;;;;;;9.65;5.80;;;;;;;-140.66;100.00;55571.53;5115269;28;20035;-72
2023/09/10 00:36:34;;;;;;;9.52;5.50;;;;;;;-140.66;100.00;55571.53;5116248;28;20027;-71
2023/09/10 00:39:20;;;;;;;10.68;5.90;;;;;;;-140.66;100.00;55571.53;5117021;28;20110;-72
2023/09/10 00:42:06;;;;;;;8.70;5.97;;;;;;;-140.66;100.00;55571.53;5115694;28;20039;-71
2023/09/10 00:44:51;;;;;;;9.35;5.47;;;;;;;-140.66;100.00;55571.53;5114054;28;20059;-71
2023/09/10 00:47:43;;;;;;;12.00;6.53;;;;;;;-140.66;100.00;55571.53;5114418;28;20102;-71
2023/09/10 00:50:28;;;;;;;27.90;6.85;;;;;;;-140.66;100.00;55571.53;5116001;28;20062;-72
2023/09/10 00:53:14;;;;;;;10.82;6.53;;;;;;;-140.66;100.00;55571.53;5115356;28;20039;-71
2023/09/10 00:56:00;;;;;;;11.82;6.47;;;;;;;-140.66;100.00;55571.53;5114995;28;20035;-71
2023/09/10 00:58:47;;;;;;;9.43;6.40;;;;;;;-140.66;100.00;55571.53;5116038;28;20104;-71
2023/09/10 01:01:33;;;;;;;14.13;7.07;;;;;;;-140.66;100.00;55571.53;5115016;28;20058;-70
2023/09/10 01:04:22;;;;;;;10.45;6.28;;;;;;;-140.66;100.00;55571.53;5116520;28;20058;-70
2023/09/10 01:07:07;;;;;;;13.23;6.80;;;;;;;-140.66;100.00;55571.53;5116194;28;20541;-71
2023/09/10 01:09:53;;;;;;;9.63;6.30;;;;;;;-140.66;100.00;55571.53;5113747;28;20464;-72
2023/09/10 01:13:02;;;;;;;18.08;7.40;;;;;;;-140.66;100.00;55571.53;5114662;28;20102;-71
2023/09/10 01:16:02;;;;;;;12.57;7.05;;;;;;;-140.66;100.00;55571.53;5114800;28;20031;-71
2023/09/10 01:18:53;;;;;;;11.80;6.93;;;;;;;-140.66;100.00;55571.53;5115914;28;20130;-71
2023/09/10 01:22:09;;;;;;;14.48;6.78;;;;;;;-140.66;100.00;55571.53;5114754;28;20364;-71
2023/09/10 01:24:57;;;;;;;18.73;6.65;;;;;;;-140.66;100.00;55571.53;5099191;28;20330;-71
2023/09/10 01:27:43;;;;;;;15.50;6.85;;;;;;;-140.66;100.00;55571.53;5115782;28;20038;-71
2023/09/10 01:30:30;;;;;;;11.27;6.22;;;;;;;-140.66;100.00;55571.53;5114305;28;20023;-71
2023/09/10 01:33:24;;;;;;;18.35;7.38;;;;;;;-140.66;100.00;55571.53;5099317;28;20411;-71
2023/09/10 01:36:30;;;;;;;44.00;8.18;;;;;;;-140.66;100.00;55571.53;5115377;28;20107;-71
2023/09/10 01:39:40;;;;;;;10.45;6.50;;;;;;;-140.66;100.00;55571.53;5115647;28;20023;-71
2023/09/10 01:42:26;;;;;;;10.35;6.18;;;;;;;-140.66;100.00;55571.53;5086181;28;20450;-71
2023/09/10 01:45:12;;;;;;;15.25;6.90;;;;;;;-140.66;100.00;55571.53;5114713;28;20119;-71
2023/09/10 01:47:57;;;;;;;18.58;7.25;;;;;;;-140.66;100.00;55571.53;5113807;28;20066;-71
2023/09/10 01:50:43;;;;;;;14.48;6.68;;;;;;;-140.66;100.00;55571.53;5113456;28;20519;-71
2023/09/10 01:53:29;;;;;;;15.55;7.28;;;;;;;-140.66;100.00;55571.53;5114364;28;20023;-71
2023/09/10 01:56:15;;;;;;;11.10;6.57;;;;;;;-140.66;100.00;55571.53;5113437;28;20077;-70
2023/09/10 01:59:01;;;;;;;15.18;7.03;;;;;;;-140.66;100.00;55571.53;5113976;28;20035;-71
2023/09/10 02:01:46;;;;;;;14.65;7.25;;;;;;;-140.66;100.00;55571.53;5113651;28;20100;-71
2023/09/10 02:04:32;;;;;;;15.68;7.35;;;;;;;-140.66;100.00;55571.53;5113611;28;20031;-71
2023/09/10 02:07:18;;;;;;;16.92;7.35;;;;;;;-140.66;100.00;55571.53;5113320;28;20440;-72
2023/09/10 02:10:04;;;;;;;23.52;8.50;;;;;;;-140.66;100.00;55571.53;5114348;28;20039;-71
2023/09/10 02:12:50;;;;;;;10.95;6.95;;;;;;;-140.66;100.00;55571.53;5112698;28;20020;-71
2023/09/10 02:15:36;;;;;;;9.90;6.47;;;;;;;-140.66;100.00;55571.53;5114925;28;20110;-71
2023/09/10 02:18:22;;;;;;;16.13;5.95;;;;;;;-140.66;100.00;55571.53;5111833;28;20353;-71
2023/09/10 02:21:09;;;;;;;11.98;5.63;;;;;;;-140.66;100.00;55571.53;5098701;28;20031;-72
2023/09/10 02:23:55;;;;;;;10.23;5.53;;;;;;;-140.66;100.00;55571.53;5114346;28;20019;-71
2023/09/10 02:26:41;;;;;;;17.48;5.68;;;;;;;-140.66;100.00;55571.53;5114591;28;20035;-71
2023/09/10 02:29:26;;;;;;;11.15;5.50;;;;;;;-140.66;100.00;55571.53;5113338;28;20031;-71
2023/09/10 02:32:12;;;;;;;13.02;4.90;;;;;;;-140.66;100.00;55571.53;5098693;28;20055;-72
2023/09/10 02:34:58;;;;;;;10.52;4.68;;;;;;;-140.66;100.00;55571.53;5113862;28;20027;-72
2023/09/10 02:37:44;;;;;;;8.88;4.50;;;;;;;-140.66;100.00;55571.53;5116855;28;20023;-73
2023/09/10 02:40:30;;;;;;;7.40;4.80;;;;;;;-140.66;100.00;55571.53;5117800;28;20096;-73
2023/09/10 02:43:15;;;;;;;8.80;4.45;;;;;;;-140.66;100.00;55571.53;5117480;28;20043;-72
2023/09/10 02:46:01;;;;;;;11.00;4.72;;;;;;;-140.66;100.00;55571.53;5103246;28;20357;-72
2023/09/10 02:48:47;;;;;;;10.25;5.07;;;;;;;-140.66;100.00;55571.53;5117945;28;20043;-71
2023/09/10 02:51:32;;;;;;;9.50;5.03;;;;;;;-140.66;100.00;55571.53;5117200;28;20103;-72
2023/09/10 02:54:18;;;;;;;12.95;5.55;;;;;;;-140.66;100.00;55571.53;5116673;28;20037;-71
2023/09/10 02:57:04;;;;;;;10.98;5.18;;;;;;;-140.66;100.00;55571.53;5117366;28;20016;-71
2023/09/10 02:59:50;;;;;;;11.85;4.88;;;;;;;-140.66;100.00;55571.53;5118952;28;20469;-71
2023/09/10 03:02:35;;;;;;;7.30;4.70;;;;;;;-140.66;100.00;55571.53;5118315;28;20055;-72
2023/09/10 03:05:22;;;;;;;10.10;5.00;;;;;;;-140.66;100.00;55571.53;5117651;28;20065;-72
2023/09/10 03:08:08;;;;;;;10.93;4.82;;;;;;;-140.66;100.00;55571.53;5118475;28;20445;-72
2023/09/10 03:10:53;;;;;;;7.78;4.75;;;;;;;-140.66;100.00;55571.53;5118088;28;20032;-72
2023/09/10 03:13:39;;;;;;;23.15;5.47;;;;;;;-140.66;100.00;55571.53;5116241;28;20027;-72
2023/09/10 03:16:25;;;;;;;13.57;5.18;;;;;;;-140.66;100.00;55571.53;5116541;28;20015;-72
2023/09/10 03:19:11;;;;;;;13.35;5.55;;;;;;;-140.66;100.00;55571.53;5102423;28;20184;-72
2023/09/10 03:21:56;;;;;;;9.77;5.47;;;;;;;-140.66;100.00;55571.53;5117037;28;20034;-72
2023/09/10 03:24:42;;;;;;;9.65;4.88;;;;;;;-140.66;100.00;55571.53;5102405;28;20028;-72
2023/09/10 03:27:28;;;;;;;13.48;4.80;;;;;;;-140.66;100.00;55571.53;5117903;28;20028;-72
2023/09/10 03:30:14;;;;;;;7.75;4.72;;;;;;;-140.66;100.00;55571.53;5117615;28;20361;-72
2023/09/10 03:32:59;;;;;;;10.95;4.65;;;;;;;-140.66;100.00;55571.53;5116630;28;20027;-71
2023/09/10 03:35:45;;;;;;;9.73;4.82;;;;;;;-140.66;100.00;55571.53;5117466;28;20583;-72
2023/09/10 03:38:31;;;;;;;8.02;4.90;;;;;;;-140.66;100.00;55571.53;5116573;28;20437;-72
2023/09/10 03:41:17;;;;;;;14.07;4.68;;;;;;;-140.66;100.00;55571.53;5100766;28;20034;-72
2023/09/10 03:44:03;;;;;;;7.65;4.30;;;;;;;-140.66;100.00;55571.53;5116616;28;20048;-72
2023/09/10 03:46:49;;;;;;;7.60;4.38;;;;;;;-140.66;100.00;55571.53;5116156;28;20039;-72
2023/09/10 03:49:34;;;;;;;6.30;3.97;;;;;;;-140.66;100.00;55571.53;5117157;28;20024;-73
2023/09/10 03:52:21;;;;;;;9.82;4.63;;;;;;;-140.66;100.00;55571.53;5102035;28;20032;-72
2023/09/10 03:55:07;;;;;;;10.85;4.75;;;;;;;-140.66;100.00;55571.53;5115307;28;20020;-72
2023/09/10 03:57:53;;;;;;;12.98;3.95;;;;;;;-140.66;100.00;55571.53;5102161;28;20094;-72
2023/09/10 04:00:39;;;;;;;9.65;4.53;;;;;;;-140.66;100.00;55571.53;5117804;28;20476;-72
2023/09/10 04:03:26;;;;;;;8.82;4.30;;;;;;;-140.66;100.00;55571.53;5115030;28;20408;-72
2023/09/10 04:06:11;;;;;;;10.55;4.80;;;;;;;-140.66;100.00;55571.53;5117414;28;20027;-71
2023/09/10 04:08:57;;;;;;;10.15;4.40;;;;;;;-140.66;100.00;55571.53;5101604;28;20122;-72
2023/09/10 04:11:43;;;;;;;8.43;3.75;;;;;;;-140.66;100.00;55571.53;5116639;28;20077;-72
2023/09/10 04:14:30;;;;;;;6.90;3.60;;;;;;;-140.66;100.00;55571.53;5115308;28;20045;-72
2023/09/10 04:17:17;;;;;;;8.57;3.97;;;;;;;-140.66;100.00;55571.53;5116044;28;20486;-71
2023/09/10 04:20:08;;;;;;;8.57;4.03;;;;;;;-140.66;100.00;55571.53;5117234;28;20027;-71
2023/09/10 04:22:54;;;;;;;9.02;3.90;;;;;;;-140.66;100.00;55571.53;5114986;28;20513;-71
2023/09/10 04:25:39;;;;;;;8.82;4.07;;;;;;;-140.66;100.00;55571.53;5116822;28;20088;-71
2023/09/10 04:28:25;;;;;;;7.63;3.58;;;;;;;-140.66;100.00;55571.53;5101511;28;20464;-72
2023/09/10 04:31:16;;;;;;;9.77;3.85;;;;;;;-140.66;100.00;55571.53;5116505;28;20020;-72
2023/09/10 04:34:02;;;;;;;9.40;4.15;;;;;;;-140.66;100.00;55571.53;5117051;28;20377;-71
2023/09/10 04:36:48;;;;;;;9.13;4.28;;;;;;;-140.66;100.00;55571.53;5115135;28;20020;-71
2023/09/10 04:39:34;;;;;;;8.00;4.05;;;;;;;-140.66;100.00;55571.53;5114589;28;20059;-72
2023/09/10 04:42:19;;;;;;;8.80;4.05;;;;;;;-140.66;100.00;55571.53;5116472;28;20104;-71
2023/09/10 04:45:06;;;;;;;10.30;4.18;;;;;;;-140.66;100.00;55571.53;5114393;28;20509;-72
2023/09/10 04:47:51;;;;;;;9.40;4.10;;;;;;;-140.66;100.00;55571.53;5114639;28;20114;-71
2023/09/10 04:50:37;;;;;;;6.93;4.00;;;;;;;-140.66;100.00;55571.53;5116762;28;20027;-72
2023/09/10 04:53:23;;;;;;;7.72;4.15;;;;;;;-140.66;100.00;55571.53;5115314;28;20039;-73
2023/09/10 04:56:08;;;;;;;12.35;4.28;;;;;;;-140.66;100.00;55571.53;5115706;28;20036;-72
2023/09/10 04:58:54;;;;;;;12.13;4.53;;;;;;;-140.66;100.00;55571.53;5114679;28;20026;-72
2023/09/10 05:01:40;;;;;;;10.70;3.97;;;;;;;-140.66;100.00;55571.53;5116520;28;20028;-71
2023/09/10 05:04:27;;;;;;;8.48;3.75;;;;;;;-140.66;100.00;55571.53;5099976;28;20036;-71
2023/09/10 05:07:12;;;;;;;8.57;3.88;;;;;;;-140.66;100.00;55571.53;5115711;28;20039;-72
2023/09/10 05:09:58;;;;;;;13.30;3.90;;;;;;;-140.66;100.00;55571.53;5115126;28;20028;-71
2023/09/10 05:12:44;;;;;;;10.82;4.00;;;;;;;-140.66;100.00;55571.53;5115860;28;20034;-72
2023/09/10 05:15:30;;;;;;;8.30;3.83;;;;;;;-140.66;100.00;55571.53;5100340;28;20088;-72
2023/09/10 05:18:16;;;;;;;7.80;4.30;;;;;;;-140.66;100.00;55571.53;5114862;28;20038;-71
2023/09/10 05:21:02;;;;;;;6.47;3.90;;;;;;;-140.66;100.00;55571.53;5114697;28;20110;-72
2023/09/10 05:23:48;;;;;;;8.73;4.00;;;;;;;-140.66;100.00;55571.53;5115417;28;20039;-71
2023/09/10 05:26:34;;;;;;;9.55;4.60;;;;;;;-140.66;100.00;55571.53;5116279;28;20030;-72
2023/09/10 05:29:20;;;;;;;10.70;4.78;;;;;;;-140.66;100.00;55571.53;5113522;28;20042;-72
2023/09/10 05:32:05;;;;;;;8.73;4.10;;;;;;;-140.66;100.00;55571.53;5101586;28;20024;-72
2023/09/10 05:34:51;;;;;;;9.80;4.18;;;;;;;-140.66;100.00;55571.53;5115104;28;20032;-72
2023/09/10 05:37:37;;;;;;;10.07;4.72;;;;;;;-140.66;100.00;55571.53;5099826;28;20024;-73
2023/09/10 05:40:23;;;;;;;20.40;5.05;;;;;;;-140.66;100.00;55571.53;5099090;28;20021;-71
2023/09/10 05:43:08;;;;;;;7.78;4.10;;;;;;;-140.66;100.00;55571.53;5115320;28;20051;-71
2023/09/10 05:45:54;;;;;;;12.95;4.40;;;;;;;-140.66;100.00;55571.53;5100434;28;20016;-71
2023/09/10 05:48:40;;;;;;;8.73;4.20;;;;;;;-140.66;100.00;55571.53;5099691;28;20338;-71
2023/09/10 05:51:25;;;;;;;13.55;4.93;;;;;;;-140.66;100.00;55571.53;5098825;28;20024;-72
2023/09/10 05:54:11;;;;;;;9.73;4.05;;;;;;;-140.66;100.00;55571.53;5113856;28;20042;-73
2023/09/10 05:56:57;;;;;;;8.68;4.20;;;;;;;-140.66;100.00;55571.53;5114755;28;20378;-72
2023/09/10 05:59:43;;;;;;;8.57;3.85;;;;;;;-140.66;100.00;55571.53;5113728;28;20046;-72
2023/09/10 06:02:28;;;;;;;12.45;4.30;;;;;;;-140.66;100.00;55571.53;5098727;28;20020;-72
2023/09/10 06:05:15;;;;;;;11.63;4.53;;;;;;;-140.66;100.00;55571.53;5113993;28;20031;-72
2023/09/10 06:08:01;;;;;;;7.20;4.07;;;;;;;-140.66;100.00;55571.53;5114489;28;20043;-72
2023/09/10 06:10:47;;;;;;;9.00;4.25;;;;;;;-140.66;100.00;55571.53;5098447;28;20120;-73
2023/09/10 06:13:33;;;;;;;11.63;4.03;;;;;;;-140.66;100.00;55571.53;5099069;28;20477;-71
2023/09/10 06:16:19;;;;;;;9.77;4.28;;;;;;;-140.66;100.00;55571.53;5113326;28;20032;-72
2023/09/10 06:19:05;;;;;;;7.22;3.92;;;;;;;-140.66;100.00;55571.53;5114080;28;20031;-72
2023/09/10 06:21:50;;;;;;;9.05;3.67;;;;;;;-140.66;100.00;55571.53;5113484;28;20034;-72
2023/09/10 06:24:36;;;;;;;7.40;3.88;;;;;;;-140.66;100.00;55571.53;5114432;28;20031;-72
2023/09/10 06:27:22;;;;;;;13.73;4.00;;;;;;;-140.66;100.00;55571.53;5114785;28;20016;-72
2023/09/10 06:30:08;;;;;;;10.13;3.88;;;;;;;-140.66;100.00;55571.53;5113291;28;20027;-72
2023/09/10 06:32:54;;;;;;;8.73;4.20;;;;;;;-140.66;100.00;55571.53;5113894;28;20028;-71
2023/09/10 06:35:39;;;;;;;8.73;4.13;;;;;;;-140.66;100.00;55571.53;5112440;28;20034;-71
2023/09/10 06:38:25;;;;;;;6.63;4.40;;;;;;;-140.66;100.00;55571.53;5100713;28;20031;-72
2023/09/10 06:41:11;;;;;;;11.55;4.07;;;;;;;-140.66;100.00;55571.53;5098625;28;20028;-72
2023/09/10 06:43:57;;;;;;;10.52;4.15;;;;;;;-140.66;100.00;55571.53;5114541;28;20538;-72
2023/09/10 06:46:43;;;;;;;6.93;3.75;;;;;;;-140.66;100.00;55571.53;5114232;28;20534;-72
2023/09/10 06:49:28;;;;;;;7.85;3.92;;;;;;;-140.66;100.00;55571.53;5114418;28;20038;-72
2023/09/10 06:52:14;;;;;;;8.10;3.78;;;;;;;-140.66;100.00;55571.53;5113774;28;20031;-72
2023/09/10 06:55:02;;;;;;;6.75;3.97;;;;;;;-140.66;100.00;55571.53;5114248;28;20093;-72
2023/09/10 06:57:48;;;;;;;10.00;3.90;;;;;;;-140.66;100.00;55571.53;5112980;28;20053;-71
2023/09/10 07:00:34;;;;;;;7.65;4.00;;;;;;;-140.66;100.00;55571.53;5112493;28;20028;-72
2023/09/10 07:03:20;;;;;;;8.68;4.00;;;;;;;-140.66;100.00;55571.53;5114230;28;20031;-72
2023/09/10 07:06:06;;;;;;;8.25;3.97;;;;;;;-140.66;100.00;55571.53;5097735;28;20395;-72
2023/09/10 07:08:52;;;;;;;10.32;3.85;;;;;;;-140.66;100.00;55571.53;5113461;28;20110;-72
2023/09/10 07:11:38;;;;;;;9.27;3.92;;;;;;;-140.66;100.00;55571.53;5098492;28;20031;-72
2023/09/10 07:14:23;;;;;;;9.00;3.63;;;;;;;-140.66;100.00;55571.53;5112703;28;20041;-73
2023/09/10 07:17:09;;;;;;;8.90;3.80;;;;;;;-140.66;100.00;55571.53;5099727;28;20081;-71
2023/09/10 07:19:55;;;;;;;8.05;3.58;;;;;;;-140.66;100.00;55571.53;5113461;28;20510;-71
2023/09/10 07:22:41;;;;;;;20.02;4.80;;;;;;;-140.66;100.00;55571.53;5114737;28;20381;-71
2023/09/10 07:25:26;;;;;;;9.10;3.88;;;;;;;-140.66;100.00;55571.53;5116647;28;20027;-71
2023/09/10 07:28:12;;;;;;;11.25;4.28;;;;;;;-140.66;100.00;55571.53;5115561;28;20110;-72
2023/09/10 07:30:58;;;;;;;12.27;4.20;;;;;;;-140.66;100.00;55571.53;5116191;28;20055;-71
2023/09/10 07:33:44;;;;;;;8.13;4.03;;;;;;;-140.66;100.00;55571.53;5115855;28;20465;-72
2023/09/10 07:36:29;;;;;;;7.25;3.40;;;;;;;-140.66;100.00;55571.53;5117557;28;20031;-72
2023/09/10 07:39:18;;;;;;;8.43;3.70;;;;;;;-140.66;100.00;55571.53;5102035;28;20092;-72
2023/09/10 07:42:04;;;;;;;4.95;3.20;;;;;;;-140.66;100.00;55571.53;5117348;28;20106;-71
2023/09/10 07:44:50;;;;;;;10.13;3.60;;;;;;;-140.66;100.00;55571.53;5101399;28;20052;-72
2023/09/10 07:47:35;;;;;;;5.85;3.60;;;;;;;-140.66;100.00;55571.53;5117269;28;20024;-72
2023/09/10 07:50:21;;;;;;;8.70;3.67;;;;;;;-140.66;100.00;55571.53;5117137;28;20058;-73
2023/09/10 07:53:07;;;;;;;6.75;4.03;;;;;;;-140.66;100.00;55571.53;5115812;28;20404;-73
2023/09/10 07:55:53;;;;;;;7.18;3.83;;;;;;;-140.66;100.00;55571.53;5115619;28;20093;-72
2023/09/10 07:58:38;;;;;;;9.02;3.85;;;;;;;-140.66;100.00;55571.53;5115272;28;20111;-72
2023/09/10 08:01:24;;;;;;;6.50;3.70;;;;;;;-140.66;100.00;55571.53;5117642;28;20031;-72
2023/09/10 08:04:10;;;;;;;9.48;3.63;;;;;;;-140.66;100.00;55571.53;5115461;28;20027;-72
2023/09/10 08:06:56;;;;;;;12.13;4.00;;;;;;;-140.66;100.00;55571.53;5116676;28;20024;-72
2023/09/10 08:09:42;;;;;;;13.02;4.15;;;;;;;-140.66;100.00;55571.53;5116287;28;20019;-72
2023/09/10 08:12:28;;;;;;;4.90;3.75;;;;;;;-140.66;100.00;55571.53;5115476;28;20027;-71
2023/09/10 08:15:13;;;;;;;7.45;3.28;;;;;;;-140.66;100.00;55571.53;5116237;28;20114;-72
2023/09/10 08:17:59;;;;;;;8.02;4.07;;;;;;;-140.66;100.00;55571.53;5101379;28;20102;-72
2023/09/10 08:20:45;;;;;;;12.05;3.80;;;;;;;-140.66;100.00;55571.53;5116320;28;20020;-71
2023/09/10 08:23:31;;;;;;;9.25;3.75;;;;;;;-140.66;100.00;55571.53;5100616;28;20028;-72
2023/09/10 08:26:17;;;;;;;9.70;3.95;;;;;;;-140.66;100.00;55571.53;5116202;28;20034;-72
2023/09/10 08:29:02;;;;;;;13.52;3.85;;;;;;;-140.66;100.00;55571.53;5102194;28;20415;-72
2023/09/10 08:31:48;;;;;;;7.07;3.60;;;;;;;-140.66;100.00;55571.53;5100912;28;20037;-73
2023/09/10 08:34:34;;;;;;;10.30;3.70;;;;;;;-140.66;100.00;55571.53;5115693;28;20027;-72
2023/09/10 08:37:20;;;;;;;5.95;3.80;;;;;;;-140.66;100.00;55571.53;5116937;28;20096;-73
2023/09/10 08:40:08;;;;;;;7.50;3.55;;;;;;;-140.66;100.00;55571.53;5115677;28;20475;-72
2023/09/10 08:43:14;;;;;;;15.02;4.13;;;;;;;-140.66;100.00;55571.53;5116185;28;20133;-73
2023/09/10 08:46:00;;;;;;;11.73;4.07;;;;;;;-140.66;100.00;55571.53;5101273;28;20135;-71
2023/09/10 08:48:46;;;;;;;13.48;4.22;;;;;;;-140.66;100.00;55571.53;5115197;28;20112;-72
2023/09/10 08:51:34;;;;;;;10.32;4.18;;;;;;;-140.66;100.00;55571.53;5116035;28;20015;-72
2023/09/10 08:54:20;;;;;;;12.93;3.70;;;;;;;-140.66;100.00;55571.53;5116372;28;20050;-72
2023/09/10 08:57:05;;;;;;;11.07;4.05;;;;;;;-140.66;100.00;55571.53;5114763;28;20405;-72
2023/09/10 08:59:52;;;;;;;6.47;3.67;;;;;;;-140.66;100.00;55571.53;5100513;28;20069;-71
2023/09/10 09:02:43;;;;;;;16.55;4.53;;;;;;;-140.66;100.00;55571.53;5115970;28;20031;-72
2023/09/10 09:05:30;;;;;;;9.20;3.85;;;;;;;-140.66;100.00;55571.53;5116138;28;20020;-72
2023/09/10 09:08:21;;;;;;;10.13;4.30;;;;;;;-140.66;100.00;55571.53;5100623;28;20082;-72
2023/09/10 09:11:09;;;;;;;8.90;3.72;;;;;;;-140.66;100.00;55571.53;5116222;28;20032;-72
2023/09/10 09:13:55;;;;;;;11.65;3.90;;;;;;;-140.66;100.00;55571.53;5115236;28;20058;-72
2023/09/10 09:16:42;;;;;;;7.15;4.05;;;;;;;-140.66;100.00;55571.53;5116072;28;20027;-71
2023/09/10 09:19:30;;;;;;;13.43;4.38;;;;;;;-140.66;100.00;55571.53;5116086;28;20112;-72
2023/09/10 09:22:19;;;;;;;13.02;5.20;;;;;;;-140.66;100.00;55571.53;5115336;28;20027;-73
2023/09/10 09:25:06;;;;;;;13.88;5.88;;;;;;;-140.66;100.00;55571.53;5114448;28;20365;-72
2023/09/10 09:27:55;;;;;;;13.50;6.18;;;;;;;-140.66;100.00;55571.53;5114707;28;20028;-72
2023/09/10 09:30:40;;;;;;;11.80;4.45;;;;;;;-140.66;100.00;55571.53;5113962;28;20428;-73
2023/09/10 09:33:26;;;;;;;6.25;3.53;;;;;;;-140.66;100.00;55571.53;5114045;28;20038;-72
2023/09/10 09:36:12;;;;;;;9.60;3.40;;;;;;;-140.66;100.00;55571.53;5114128;28;20035;-72
2023/09/10 09:38:58;;;;;;;9.07;3.03;;;;;;;-140.66;100.00;55571.53;5113669;28;20476;-72
2023/09/10 09:41:51;;;;;;;9.65;3.72;;;;;;;-140.66;100.00;55571.53;5098517;28;20457;-72
2023/09/10 09:44:37;;;;;;;9.20;3.38;;;;;;;-140.66;100.00;55571.53;5113112;28;20059;-72
2023/09/10 09:47:23;;;;;;;8.48;3.42;;;;;;;-140.66;100.00;55571.53;5113001;28;20457;-72
2023/09/10 09:50:13;;;;;;;10.20;3.28;;;;;;;-140.66;100.00;55571.53;5113300;28;20031;-73
2023/09/10 09:52:59;;;;;;;7.18;3.42;;;;;;;-140.66;100.00;55571.53;5113905;28;20027;-72
2023/09/10 09:55:44;;;;;;;10.73;3.33;;;;;;;-140.66;100.00;55571.53;5114266;28;20024;-71
2023/09/10 09:58:30;;;;;;;8.60;3.58;;;;;;;-140.66;100.00;55571.53;5113800;28;20020;-72
2023/09/10 10:01:20;;;;;;;7.50;3.10;;;;;;;-140.66;100.00;55571.53;5099531;28;20116;-72
2023/09/10 10:04:07;;;;;;;7.05;3.30;;;;;;;-140.66;100.00;55571.53;5114108;28;20024;-73
2023/09/10 10:06:53;;;;;;;6.32;3.10;;;;;;;-140.66;100.00;55571.53;5113154;28;20390;-72
2023/09/10 10:09:40;;;;;;;9.48;3.13;;;;;;;-140.66;100.00;55571.53;5113012;28;20368;-71
2023/09/10 10:12:26;;;;;;;9.90;3.50;;;;;;;-140.66;100.00;55571.53;5099686;28;20034;-71
2023/09/10 10:15:13;;;;;;;10.98;3.22;;;;;;;-140.66;100.00;55571.53;5100201;28;20028;-71
2023/09/10 10:17:59;;;;;;;6.28;3.00;;;;;;;-140.66;100.00;55571.53;5113341;28;20102;-71
2023/09/10 10:20:47;;;;;;;5.82;3.20;;;;;;;-140.66;100.00;55571.53;5113595;28;20028;-71
2023/09/10 10:23:33;;;;;;;8.32;3.10;;;;;;;-140.66;100.00;55571.53;5114244;28;20027;-72
2023/09/10 10:26:20;;;;;;;7.28;2.95;;;;;;;-140.66;100.00;55571.53;5113447;28;20349;-72
2023/09/10 10:29:07;;;;;;;9.88;3.03;;;;;;;-140.66;100.00;55571.53;5112390;28;20028;-73
2023/09/10 10:32:02;;;;;;;11.70;3.30;;;;;;;-140.66;100.00;55571.53;5098058;28;20043;-72
2023/09/10 10:34:54;;;;;;;8.63;3.40;;;;;;;-140.66;100.00;55571.53;5113865;28;20019;-73
2023/09/10 10:37:51;;;;;;;7.93;3.10;;;;;;;-140.66;100.00;55571.53;5113254;28;20044;-72
2023/09/10 10:40:43;;;;;;;10.98;3.20;;;;;;;-140.66;100.00;55571.53;5114709;28;20038;-72
2023/09/10 10:43:33;;;;;;;3.97;2.80;;;;;;;-140.66;100.00;55571.53;5113905;28;20101;-72
2023/09/10 10:46:22;;;;;;;8.98;3.13;;;;;;;-140.66;100.00;55571.53;5099430;28;20031;-72
2023/09/10 10:49:08;;;;;;;7.65;3.10;;;;;;;-140.66;100.00;55571.53;5099221;28;20048;-72
2023/09/10 10:51:59;;;;;;;6.95;3.25;;;;;;;-140.66;100.00;55571.53;5112519;28;20046;-72
2023/09/10 10:54:47;;;;;;;9.75;3.28;;;;;;;-140.66;100.00;55571.53;5097815;28;20062;-73
2023/09/10 10:57:34;;;;;;;10.65;3.20;;;;;;;-140.66;100.00;55571.53;5112786;28;20106;-72
2023/09/10 11:00:21;;;;;;;9.95;3.17;;;;;;;-140.66;100.00;55571.53;5103211;28;20055;-72
2023/09/10 11:03:14;;;;;;;10.77;3.08;;;;;;;-140.66;100.00;55571.53;5103054;28;20205;-72
2023/09/10 11:06:04;;;;;;;5.28;2.80;;;;;;;-140.66;100.00;55571.53;5116456;28;20111;-72
2023/09/10 11:08:50;;;;;;;9.73;3.30;;;;;;;-140.66;100.00;55571.53;5117996;28;20024;-73
2023/09/10 11:11:37;;;;;;;11.93;3.03;;;;;;;-140.66;100.00;55571.53;5117591;28;20025;-73
2023/09/10 11:14:22;;;;;;;8.65;3.35;;;;;;;-140.66;100.00;55571.53;5116828;28;20024;-72
2023/09/10 11:17:35;;;;;;;4.82;2.78;;;;;;;-140.66;100.00;55571.53;5117951;28;20039;-73
2023/09/10 11:20:50;;;;;;;9.48;2.78;;;;;;;-140.66;100.00;55571.53;5116938;28;20028;-72
2023/09/10 11:23:54;;;;;;;8.55;3.10;;;;;;;-140.66;100.00;55571.53;5116270;28;20098;-71
2023/09/10 11:26:40;;;;;;;11.52;3.05;;;;;;;-140.66;100.00;55571.53;5116274;28;20439;-73
2023/09/10 11:29:28;;;;;;;7.40;2.60;;;;;;;-140.66;100.00;55571.53;5117053;28;20110;-70
2023/09/10 11:32:17;;;;;;;12.60;3.00;;;;;;;-140.66;100.00;55571.53;5116671;28;20055;-72
2023/09/10 11:35:18;;;;;;;13.75;3.42;;;;;;;-140.66;100.00;55571.53;5117826;28;20432;-73
2023/09/10 11:38:03;;;;;;;15.80;3.33;;;;;;;-140.66;100.00;55571.53;5116088;28;20404;-72
2023/09/10 11:40:49;;;;;;;14.32;3.15;;;;;;;-140.66;100.00;55571.53;5101353;28;20074;-72
2023/09/10 11:43:37;;;;;;;11.40;3.42;;;;;;;-140.66;100.00;55571.53;5116811;28;20066;-72
2023/09/10 11:46:23;;;;;;;10.57;3.30;;;;;;;-140.66;100.00;55571.53;5115003;28;20047;-72
2023/09/10 11:49:08;;;;;;;7.35;3.05;;;;;;;-140.66;100.00;55571.53;5117665;28;20074;-71
2023/09/10 11:51:56;;;;;;;5.20;2.72;;;;;;;-140.66;100.00;55571.53;5115668;28;20034;-71
2023/09/10 11:54:42;;;;;;;8.35;3.33;;;;;;;-140.66;100.00;55571.53;5116099;28;20476;-72
2023/09/10 11:57:28;;;;;;;7.30;3.10;;;;;;;-140.66;100.00;55571.53;5117190;28;20122;-72
2023/09/10 12:00:16;;;;;;;8.45;2.90;;;;;;;-140.66;100.00;55571.53;5116386;28;20508;-71
2023/09/10 12:03:03;;;;;;;10.30;3.03;;;;;;;-140.66;100.00;55571.53;5116406;28;20035;-71
2023/09/10 12:05:48;;;;;;;7.25;3.00;;;;;;;-140.66;100.00;55571.53;5115067;28;20058;-71
2023/09/10 12:08:34;;;;;;;7.82;3.30;;;;;;;-140.66;100.00;55571.53;5115950;28;20043;-71
2023/09/10 12:11:21;;;;;;;5.38;3.10;;;;;;;-140.66;100.00;55571.53;5115657;28;20023;-73
2023/09/10 12:14:07;;;;;;;6.63;2.83;;;;;;;-140.66;100.00;55571.53;5114896;28;20457;-72
2023/09/10 12:16:53;;;;;;;12.38;3.28;;;;;;;-140.66;100.00;55571.53;5115507;28;20330;-72
2023/09/10 12:19:41;;;;;;;11.48;4.03;;;;;;;-140.66;100.00;55571.53;5115129;28;20028;-72
2023/09/10 12:22:27;;;;;;;9.23;3.33;;;;;;;-140.66;100.00;55571.53;5114511;28;20122;-72
2023/09/10 12:25:13;;;;;;;10.48;2.90;;;;;;;-140.66;100.00;55571.53;5116019;28;20519;-72
2023/09/10 12:27:59;;;;;;;7.47;3.03;;;;;;;-140.66;100.00;55571.53;5116318;28;20360;-71
2023/09/10 12:30:46;;;;;;;9.30;3.22;;;;;;;-140.66;100.00;55571.53;5116538;28;20101;-73
2023/09/10 12:33:32;;;;;;;8.35;3.15;;;;;;;-140.66;100.00;55571.53;5115548;28;20031;-72
2023/09/10 12:36:17;;;;;;;11.68;2.78;;;;;;;-140.66;100.00;55571.53;5115112;28;20027;-72